sensor_id;sensor_type;location;lat;lon;timestamp;P1;durP1;ratioP1;P2;durP2;ratioP2
12110;SDS011;6119;52.372;8.990;2023-06-14T00:02:08;7.67;;;2.67;;
12110;SDS011;6119;52.372;8.990;2023-06-14T00:04:57;3.17;;;2.87;;
12110;SDS011;6119;52.372;8.990;2023-06-14T00:07:44;4.07;;;2.33;;
12110;SDS011;6119;52.372;8.990;2023-06-14T00:10:33;3.57;;;2.40;;
12110;SDS011;6119;52.372;8.990;2023-06-14T00:13:20;5.30;;;2.73;;
12110;SDS011;6119;52.372;8.990;2023-06-14T00:16:06;8.23;;;2.53;;
12110;SDS011;6119;52.372;8.990;2023-06-14T00:18:53;4.60;;;2.50;;
12110;SDS011;6119;52.372;8.990;2023-06-14T00:21:41;4.13;;;2.43;;
12110;SDS011;6119;52.372;8.990;2023-06-14T00:24:28;4.40;;;2.40;;
12110;SDS011;6119;52.372;8.990;2023-06-14T00:27:15;4.47;;;2.30;;
12110;SDS011;6119;52.372;8.990;2023-06-14T00:30:02;4.10;;;2.50;;
12110;SDS011;6119;52.372;8.990;2023-06-14T00:32:49;3.90;;;2.30;;
12110;SDS011;6119;52.372;8.990;2023-06-14T00:35:36;3.50;;;2.50;;
12110;SDS011;6119;52.372;8.990;2023-06-14T00:38:24;3.07;;;2.67;;
12110;SDS011;6119;52.372;8.990;2023-06-14T00:41:11;4.07;;;2.70;;
12110;SDS011;6119;52.372;8.990;2023-06-14T00:43:57;4.60;;;2.67;;
12110;SDS011;6119;52.372;8.990;2023-06-14T00:46:45;4.17;;;2.43;;
12110;SDS011;6119;52.372;8.990;2023-06-14T00:49:32;3.27;;;2.57;;
12110;SDS011;6119;52.372;8.990;2023-06-14T00:52:19;6.07;;;3.13;;
12110;SDS011;6119;52.372;8.990;2023-06-14T00:55:08;3.90;;;2.30;;
12110;SDS011;6119;52.372;8.990;2023-06-14T00:57:55;2.90;;;2.60;;
12110;SDS011;6119;52.372;8.990;2023-06-14T01:00:42;7.47;;;2.67;;
12110;SDS011;6119;52.372;8.990;2023-06-14T01:03:29;3.13;;;2.60;;
12110;SDS011;6119;52.372;8.990;2023-06-14T01:06:19;3.07;;;2.63;;
12110;SDS011;6119;52.372;8.990;2023-06-14T01:09:15;6.00;;;2.67;;
12110;SDS011;6119;52.372;8.990;2023-06-14T01:12:13;3.50;;;2.47;;
12110;SDS011;6119;52.372;8.990;2023-06-14T01:15:07;5.20;;;2.53;;
12110;SDS011;6119;52.372;8.990;2023-06-14T01:17:54;3.10;;;2.80;;
12110;SDS011;6119;52.372;8.990;2023-06-14T01:20:48;5.97;;;2.83;;
12110;SDS011;6119;52.372;8.990;2023-06-14T01:23:37;3.77;;;2.80;;
12110;SDS011;6119;52.372;8.990;2023-06-14T01:26:24;4.70;;;2.90;;
12110;SDS011;6119;52.372;8.990;2023-06-14T01:29:13;3.83;;;2.60;;
12110;SDS011;6119;52.372;8.990;2023-06-14T01:32:02;3.63;;;3.10;;
12110;SDS011;6119;52.372;8.990;2023-06-14T01:34:50;4.03;;;2.80;;
12110;SDS011;6119;52.372;8.990;2023-06-14T01:37:37;6.13;;;2.77;;
12110;SDS011;6119;52.372;8.990;2023-06-14T01:40:26;2.97;;;2.67;;
12110;SDS011;6119;52.372;8.990;2023-06-14T01:43:13;7.50;;;2.87;;
12110;SDS011;6119;52.372;8.990;2023-06-14T01:46:00;5.00;;;2.87;;
12110;SDS011;6119;52.372;8.990;2023-06-14T01:48:48;6.23;;;2.93;;
12110;SDS011;6119;52.372;8.990;2023-06-14T01:51:35;3.30;;;3.00;;
12110;SDS011;6119;52.372;8.990;2023-06-14T01:54:22;6.37;;;3.00;;
12110;SDS011;6119;52.372;8.990;2023-06-14T01:57:12;7.27;;;3.03;;
12110;SDS011;6119;52.372;8.990;2023-06-14T01:59:58;3.07;;;2.80;;
12110;SDS011;6119;52.372;8.990;2023-06-14T02:02:45;3.03;;;2.67;;
12110;SDS011;6119;52.372;8.990;2023-06-14T02:05:33;3.40;;;2.87;;
12110;SDS011;6119;52.372;8.990;2023-06-14T02:08:20;3.37;;;2.67;;
12110;SDS011;6119;52.372;8.990;2023-06-14T02:11:07;3.60;;;2.77;;
12110;SDS011;6119;52.372;8.990;2023-06-14T02:13:55;3.00;;;2.70;;
12110;SDS011;6119;52.372;8.990;2023-06-14T02:16:45;4.03;;;3.03;;
12110;SDS011;6119;52.372;8.990;2023-06-14T02:19:33;3.53;;;2.77;;
12110;SDS011;6119;52.372;8.990;2023-06-14T02:22:20;5.40;;;3.03;;
12110;SDS011;6119;52.372;8.990;2023-06-14T02:25:07;3.93;;;2.33;;
12110;SDS011;6119;52.372;8.990;2023-06-14T02:27:55;4.70;;;2.90;;
12110;SDS011;6119;52.372;8.990;2023-06-14T02:30:43;4.00;;;3.13;;
12110;SDS011;6119;52.372;8.990;2023-06-14T02:33:30;2.97;;;2.60;;
12110;SDS011;6119;52.372;8.990;2023-06-14T02:36:16;4.57;;;2.73;;
12110;SDS011;6119;52.372;8.990;2023-06-14T02:39:03;4.47;;;3.40;;
12110;SDS011;6119;52.372;8.990;2023-06-14T02:41:49;3.90;;;2.50;;
12110;SDS011;6119;52.372;8.990;2023-06-14T02:44:35;7.57;;;2.90;;
12110;SDS011;6119;52.372;8.990;2023-06-14T02:47:23;7.67;;;3.20;;
12110;SDS011;6119;52.372;8.990;2023-06-14T02:50:10;6.63;;;3.03;;
12110;SDS011;6119;52.372;8.990;2023-06-14T02:52:58;3.37;;;2.90;;
12110;SDS011;6119;52.372;8.990;2023-06-14T02:55:45;4.57;;;2.87;;
12110;SDS011;6119;52.372;8.990;2023-06-14T02:58:32;6.10;;;2.97;;
12110;SDS011;6119;52.372;8.990;2023-06-14T03:01:19;5.57;;;2.80;;
12110;SDS011;6119;52.372;8.990;2023-06-14T03:04:08;3.23;;;2.93;;
12110;SDS011;6119;52.372;8.990;2023-06-14T03:06:55;5.43;;;2.80;;
12110;SDS011;6119;52.372;8.990;2023-06-14T03:09:42;4.07;;;2.97;;
12110;SDS011;6119;52.372;8.990;2023-06-14T03:12:28;4.50;;;2.87;;
12110;SDS011;6119;52.372;8.990;2023-06-14T03:15:16;5.60;;;2.87;;
12110;SDS011;6119;52.372;8.990;2023-06-14T03:18:04;8.80;;;3.07;;
12110;SDS011;6119;52.372;8.990;2023-06-14T03:20:52;4.17;;;2.67;;
12110;SDS011;6119;52.372;8.990;2023-06-14T03:23:42;4.80;;;3.20;;
12110;SDS011;6119;52.372;8.990;2023-06-14T03:26:29;6.13;;;3.20;;
12110;SDS011;6119;52.372;8.990;2023-06-14T03:29:16;4.37;;;2.80;;
12110;SDS011;6119;52.372;8.990;2023-06-14T03:32:03;4.27;;;3.17;;
12110;SDS011;6119;52.372;8.990;2023-06-14T03:34:50;5.47;;;2.53;;
12110;SDS011;6119;52.372;8.990;2023-06-14T03:37:38;6.87;;;2.70;;
12110;SDS011;6119;52.372;8.990;2023-06-14T03:40:25;4.23;;;2.70;;
12110;SDS011;6119;52.372;8.990;2023-06-14T03:43:12;5.33;;;2.90;;
12110;SDS011;6119;52.372;8.990;2023-06-14T03:45:59;3.73;;;2.70;;
12110;SDS011;6119;52.372;8.990;2023-06-14T03:48:45;3.33;;;3.00;;
12110;SDS011;6119;52.372;8.990;2023-06-14T03:51:32;3.63;;;2.70;;
12110;SDS011;6119;52.372;8.990;2023-06-14T03:54:21;3.80;;;3.37;;
12110;SDS011;6119;52.372;8.990;2023-06-14T03:57:29;5.57;;;2.83;;
12110;SDS011;6119;52.372;8.990;2023-06-14T04:00:16;3.90;;;2.70;;
12110;SDS011;6119;52.372;8.990;2023-06-14T04:03:03;4.23;;;3.23;;
12110;SDS011;6119;52.372;8.990;2023-06-14T04:05:51;4.17;;;3.00;;
12110;SDS011;6119;52.372;8.990;2023-06-14T04:08:41;3.27;;;2.97;;
12110;SDS011;6119;52.372;8.990;2023-06-14T04:11:31;3.47;;;2.57;;
12110;SDS011;6119;52.372;8.990;2023-06-14T04:14:18;3.17;;;2.87;;
12110;SDS011;6119;52.372;8.990;2023-06-14T04:17:05;4.53;;;2.63;;
12110;SDS011;6119;52.372;8.990;2023-06-14T04:19:51;3.93;;;2.70;;
12110;SDS011;6119;52.372;8.990;2023-06-14T04:22:38;2.90;;;2.60;;
12110;SDS011;6119;52.372;8.990;2023-06-14T04:25:25;5.70;;;2.80;;
12110;SDS011;6119;52.372;8.990;2023-06-14T04:28:15;3.40;;;2.50;;
12110;SDS011;6119;52.372;8.990;2023-06-14T04:31:01;3.23;;;2.73;;
12110;SDS011;6119;52.372;8.990;2023-06-14T04:33:48;2.60;;;2.40;;
12110;SDS011;6119;52.372;8.990;2023-06-14T04:36:38;3.63;;;3.13;;
12110;SDS011;6119;52.372;8.990;2023-06-14T04:39:26;3.97;;;2.90;;
12110;SDS011;6119;52.372;8.990;2023-06-14T04:42:13;3.50;;;2.47;;
12110;SDS011;6119;52.372;8.990;2023-06-14T04:45:02;3.00;;;2.70;;
12110;SDS011;6119;52.372;8.990;2023-06-14T04:47:49;4.90;;;2.90;;
12110;SDS011;6119;52.372;8.990;2023-06-14T04:50:40;4.33;;;2.67;;
12110;SDS011;6119;52.372;8.990;2023-06-14T04:53:28;3.53;;;2.93;;
12110;SDS011;6119;52.372;8.990;2023-06-14T04:56:16;4.20;;;2.70;;
12110;SDS011;6119;52.372;8.990;2023-06-14T04:59:02;4.03;;;2.40;;
12110;SDS011;6119;52.372;8.990;2023-06-14T05:01:51;3.97;;;2.80;;
12110;SDS011;6119;52.372;8.990;2023-06-14T05:04:39;3.97;;;2.90;;
12110;SDS011;6119;52.372;8.990;2023-06-14T05:07:26;5.50;;;2.97;;
12110;SDS011;6119;52.372;8.990;2023-06-14T05:10:12;4.13;;;2.87;;
12110;SDS011;6119;52.372;8.990;2023-06-14T05:12:59;3.83;;;3.43;;
12110;SDS011;6119;52.372;8.990;2023-06-14T05:15:46;4.87;;;2.60;;
12110;SDS011;6119;52.372;8.990;2023-06-14T05:18:35;8.87;;;2.67;;
12110;SDS011;6119;52.372;8.990;2023-06-14T05:21:22;3.10;;;2.70;;
12110;SDS011;6119;52.372;8.990;2023-06-14T05:24:09;4.47;;;2.50;;
12110;SDS011;6119;52.372;8.990;2023-06-14T05:26:56;8.27;;;3.03;;
12110;SDS011;6119;52.372;8.990;2023-06-14T05:29:43;4.30;;;3.00;;
12110;SDS011;6119;52.372;8.990;2023-06-14T05:32:30;5.70;;;3.13;;
12110;SDS011;6119;52.372;8.990;2023-06-14T05:35:18;3.40;;;2.60;;
12110;SDS011;6119;52.372;8.990;2023-06-14T05:38:07;4.03;;;2.43;;
12110;SDS011;6119;52.372;8.990;2023-06-14T05:40:53;3.20;;;2.87;;
12110;SDS011;6119;52.372;8.990;2023-06-14T05:43:40;3.30;;;2.43;;
12110;SDS011;6119;52.372;8.990;2023-06-14T05:46:26;2.57;;;2.30;;
12110;SDS011;6119;52.372;8.990;2023-06-14T05:49:13;5.20;;;2.50;;
12110;SDS011;6119;52.372;8.990;2023-06-14T05:52:01;4.87;;;2.97;;
12110;SDS011;6119;52.372;8.990;2023-06-14T05:54:48;4.30;;;2.83;;
12110;SDS011;6119;52.372;8.990;2023-06-14T05:57:34;2.90;;;2.40;;
12110;SDS011;6119;52.372;8.990;2023-06-14T06:00:21;6.40;;;2.60;;
12110;SDS011;6119;52.372;8.990;2023-06-14T06:03:08;3.07;;;2.20;;
12110;SDS011;6119;52.372;8.990;2023-06-14T06:05:56;2.77;;;2.40;;
12110;SDS011;6119;52.372;8.990;2023-06-14T06:08:44;5.13;;;2.40;;
12110;SDS011;6119;52.372;8.990;2023-06-14T06:11:30;3.53;;;2.47;;
12110;SDS011;6119;52.372;8.990;2023-06-14T06:14:32;2.73;;;2.20;;
12110;SDS011;6119;52.372;8.990;2023-06-14T06:17:19;2.50;;;2.30;;
12110;SDS011;6119;52.372;8.990;2023-06-14T06:20:06;2.90;;;2.70;;
12110;SDS011;6119;52.372;8.990;2023-06-14T06:22:54;5.00;;;2.13;;
12110;SDS011;6119;52.372;8.990;2023-06-14T06:25:42;4.13;;;2.57;;
12110;SDS011;6119;52.372;8.990;2023-06-14T06:28:29;5.30;;;2.30;;
12110;SDS011;6119;52.372;8.990;2023-06-14T06:31:15;5.20;;;2.30;;
12110;SDS011;6119;52.372;8.990;2023-06-14T06:34:02;2.30;;;2.10;;
12110;SDS011;6119;52.372;8.990;2023-06-14T06:36:49;3.17;;;2.03;;
12110;SDS011;6119;52.372;8.990;2023-06-14T06:39:35;3.27;;;2.17;;
12110;SDS011;6119;52.372;8.990;2023-06-14T06:42:23;2.10;;;2.00;;
12110;SDS011;6119;52.372;8.990;2023-06-14T06:45:10;2.40;;;2.17;;
12110;SDS011;6119;52.372;8.990;2023-06-14T06:47:57;2.10;;;1.80;;
12110;SDS011;6119;52.372;8.990;2023-06-14T06:50:44;4.03;;;1.77;;
12110;SDS011;6119;52.372;8.990;2023-06-14T06:53:30;4.23;;;1.90;;
12110;SDS011;6119;52.372;8.990;2023-06-14T06:56:26;5.07;;;2.13;;
12110;SDS011;6119;52.372;8.990;2023-06-14T06:59:14;2.37;;;1.87;;
12110;SDS011;6119;52.372;8.990;2023-06-14T07:02:02;5.80;;;2.00;;
12110;SDS011;6119;52.372;8.990;2023-06-14T07:04:49;2.83;;;2.00;;
12110;SDS011;6119;52.372;8.990;2023-06-14T07:07:35;2.77;;;1.80;;
12110;SDS011;6119;52.372;8.990;2023-06-14T07:10:22;3.40;;;1.83;;
12110;SDS011;6119;52.372;8.990;2023-06-14T07:13:09;2.50;;;2.10;;
12110;SDS011;6119;52.372;8.990;2023-06-14T07:15:58;1.80;;;1.70;;
12110;SDS011;6119;52.372;8.990;2023-06-14T07:18:46;2.80;;;2.17;;
12110;SDS011;6119;52.372;8.990;2023-06-14T07:21:33;2.30;;;1.63;;
12110;SDS011;6119;52.372;8.990;2023-06-14T07:24:20;3.17;;;1.83;;
12110;SDS011;6119;52.372;8.990;2023-06-14T07:27:07;2.80;;;1.90;;
12110;SDS011;6119;52.372;8.990;2023-06-14T07:29:56;3.30;;;1.77;;
12110;SDS011;6119;52.372;8.990;2023-06-14T07:32:44;2.17;;;1.80;;
12110;SDS011;6119;52.372;8.990;2023-06-14T07:35:31;2.77;;;1.87;;
12110;SDS011;6119;52.372;8.990;2023-06-14T07:38:17;2.10;;;1.80;;
12110;SDS011;6119;52.372;8.990;2023-06-14T07:41:04;1.77;;;1.67;;
12110;SDS011;6119;52.372;8.990;2023-06-14T07:43:50;2.27;;;1.90;;
12110;SDS011;6119;52.372;8.990;2023-06-14T07:46:37;1.63;;;1.53;;
12110;SDS011;6119;52.372;8.990;2023-06-14T07:49:25;2.40;;;1.70;;
12110;SDS011;6119;52.372;8.990;2023-06-14T07:52:12;2.17;;;1.90;;
12110;SDS011;6119;52.372;8.990;2023-06-14T07:54:59;2.00;;;1.90;;
12110;SDS011;6119;52.372;8.990;2023-06-14T07:57:46;6.83;;;1.90;;
12110;SDS011;6119;52.372;8.990;2023-06-14T08:00:32;2.37;;;1.83;;
12110;SDS011;6119;52.372;8.990;2023-06-14T08:03:20;2.17;;;1.93;;
12110;SDS011;6119;52.372;8.990;2023-06-14T08:06:09;1.70;;;1.60;;
12110;SDS011;6119;52.372;8.990;2023-06-14T08:08:57;4.93;;;2.00;;
12110;SDS011;6119;52.372;8.990;2023-06-14T08:11:43;17.63;;;3.10;;
12110;SDS011;6119;52.372;8.990;2023-06-14T08:14:30;2.17;;;1.70;;
12110;SDS011;6119;52.372;8.990;2023-06-14T08:17:17;2.10;;;1.57;;
12110;SDS011;6119;52.372;8.990;2023-06-14T08:20:05;2.63;;;2.00;;
12110;SDS011;6119;52.372;8.990;2023-06-14T08:22:54;4.73;;;1.80;;
12110;SDS011;6119;52.372;8.990;2023-06-14T08:25:42;3.27;;;1.90;;
12110;SDS011;6119;52.372;8.990;2023-06-14T08:28:28;4.23;;;1.67;;
12110;SDS011;6119;52.372;8.990;2023-06-14T08:31:15;3.43;;;1.97;;
12110;SDS011;6119;52.372;8.990;2023-06-14T08:34:02;4.20;;;1.80;;
12110;SDS011;6119;52.372;8.990;2023-06-14T08:36:51;2.10;;;1.83;;
12110;SDS011;6119;52.372;8.990;2023-06-14T08:39:39;3.23;;;1.70;;
12110;SDS011;6119;52.372;8.990;2023-06-14T08:42:26;1.70;;;1.60;;
12110;SDS011;6119;52.372;8.990;2023-06-14T08:45:16;2.07;;;1.77;;
12110;SDS011;6119;52.372;8.990;2023-06-14T08:48:03;3.97;;;1.80;;
12110;SDS011;6119;52.372;8.990;2023-06-14T08:50:51;6.03;;;1.63;;
12110;SDS011;6119;52.372;8.990;2023-06-14T08:53:48;2.27;;;1.50;;
12110;SDS011;6119;52.372;8.990;2023-06-14T08:56:40;5.33;;;2.00;;
12110;SDS011;6119;52.372;8.990;2023-06-14T08:59:28;5.37;;;1.83;;
12110;SDS011;6119;52.372;8.990;2023-06-14T09:02:18;2.53;;;1.70;;
12110;SDS011;6119;52.372;8.990;2023-06-14T09:05:07;4.10;;;1.90;;
12110;SDS011;6119;52.372;8.990;2023-06-14T09:07:54;1.70;;;1.60;;
12110;SDS011;6119;52.372;8.990;2023-06-14T09:10:49;2.20;;;2.00;;
12110;SDS011;6119;52.372;8.990;2023-06-14T09:13:37;3.53;;;1.97;;
12110;SDS011;6119;52.372;8.990;2023-06-14T09:16:25;3.73;;;1.70;;
12110;SDS011;6119;52.372;8.990;2023-06-14T09:19:13;1.60;;;1.50;;
12110;SDS011;6119;52.372;8.990;2023-06-14T09:22:07;7.70;;;2.33;;
12110;SDS011;6119;52.372;8.990;2023-06-14T09:24:56;2.20;;;1.77;;
12110;SDS011;6119;52.372;8.990;2023-06-14T09:27:43;1.77;;;1.67;;
12110;SDS011;6119;52.372;8.990;2023-06-14T09:30:32;4.73;;;1.50;;
12110;SDS011;6119;52.372;8.990;2023-06-14T09:33:18;2.20;;;1.80;;
12110;SDS011;6119;52.372;8.990;2023-06-14T09:36:09;3.43;;;1.80;;
12110;SDS011;6119;52.372;8.990;2023-06-14T09:38:57;1.70;;;1.60;;
12110;SDS011;6119;52.372;8.990;2023-06-14T09:41:45;1.57;;;1.47;;
12110;SDS011;6119;52.372;8.990;2023-06-14T09:44:32;3.30;;;1.80;;
12110;SDS011;6119;52.372;8.990;2023-06-14T09:47:19;2.67;;;1.60;;
12110;SDS011;6119;52.372;8.990;2023-06-14T09:50:07;1.73;;;1.63;;
12110;SDS011;6119;52.372;8.990;2023-06-14T09:52:55;4.40;;;1.87;;
12110;SDS011;6119;52.372;8.990;2023-06-14T09:55:45;5.53;;;1.90;;
12110;SDS011;6119;52.372;8.990;2023-06-14T09:58:35;2.47;;;1.80;;
12110;SDS011;6119;52.372;8.990;2023-06-14T10:01:26;2.37;;;1.80;;
12110;SDS011;6119;52.372;8.990;2023-06-14T10:04:18;3.87;;;1.70;;
12110;SDS011;6119;52.372;8.990;2023-06-14T10:07:07;5.73;;;1.90;;
12110;SDS011;6119;52.372;8.990;2023-06-14T10:09:55;1.87;;;1.77;;
12110;SDS011;6119;52.372;8.990;2023-06-14T10:12:42;2.03;;;1.70;;
12110;SDS011;6119;52.372;8.990;2023-06-14T10:15:29;2.27;;;1.73;;
12110;SDS011;6119;52.372;8.990;2023-06-14T10:18:28;3.53;;;1.70;;
12110;SDS011;6119;52.372;8.990;2023-06-14T10:21:23;3.40;;;1.93;;
12110;SDS011;6119;52.372;8.990;2023-06-14T10:24:18;3.53;;;1.90;;
12110;SDS011;6119;52.372;8.990;2023-06-14T10:27:09;1.93;;;1.73;;
12110;SDS011;6119;52.372;8.990;2023-06-14T10:30:02;3.60;;;1.80;;
12110;SDS011;6119;52.372;8.990;2023-06-14T10:33:03;2.37;;;1.93;;
12110;SDS011;6119;52.372;8.990;2023-06-14T10:36:06;2.27;;;1.70;;
12110;SDS011;6119;52.372;8.990;2023-06-14T10:38:58;4.90;;;2.00;;
12110;SDS011;6119;52.372;8.990;2023-06-14T10:41:50;2.27;;;1.80;;
12110;SDS011;6119;52.372;8.990;2023-06-14T10:44:40;2.87;;;2.10;;
12110;SDS011;6119;52.372;8.990;2023-06-14T10:47:28;2.00;;;1.70;;
12110;SDS011;6119;52.372;8.990;2023-06-14T10:50:24;2.10;;;1.90;;
12110;SDS011;6119;52.372;8.990;2023-06-14T10:53:21;2.87;;;1.77;;
12110;SDS011;6119;52.372;8.990;2023-06-14T10:56:10;3.53;;;2.30;;
12110;SDS011;6119;52.372;8.990;2023-06-14T10:59:10;1.80;;;1.70;;
12110;SDS011;6119;52.372;8.990;2023-06-14T11:01:58;5.83;;;2.00;;
12110;SDS011;6119;52.372;8.990;2023-06-14T11:05:04;1.80;;;1.70;;
12110;SDS011;6119;52.372;8.990;2023-06-14T11:07:58;4.00;;;1.90;;
12110;SDS011;6119;52.372;8.990;2023-06-14T11:11:05;2.10;;;1.90;;
12110;SDS011;6119;52.372;8.990;2023-06-14T11:13:54;3.47;;;1.90;;
12110;SDS011;6119;52.372;8.990;2023-06-14T11:16:41;1.70;;;1.60;;
12110;SDS011;6119;52.372;8.990;2023-06-14T11:19:27;2.63;;;2.07;;
12110;SDS011;6119;52.372;8.990;2023-06-14T11:22:15;2.90;;;1.97;;
12110;SDS011;6119;52.372;8.990;2023-06-14T11:25:01;2.93;;;2.00;;
12110;SDS011;6119;52.372;8.990;2023-06-14T11:27:49;2.47;;;2.27;;
12110;SDS011;6119;52.372;8.990;2023-06-14T11:30:38;2.70;;;2.17;;
12110;SDS011;6119;52.372;8.990;2023-06-14T11:33:24;3.63;;;2.13;;
12110;SDS011;6119;52.372;8.990;2023-06-14T11:36:11;3.30;;;2.17;;
12110;SDS011;6119;52.372;8.990;2023-06-14T11:38:58;2.30;;;2.10;;
12110;SDS011;6119;52.372;8.990;2023-06-14T11:41:46;4.90;;;2.53;;
12110;SDS011;6119;52.372;8.990;2023-06-14T11:44:32;4.07;;;2.50;;
12110;SDS011;6119;52.372;8.990;2023-06-14T11:47:21;3.77;;;2.20;;
12110;SDS011;6119;52.372;8.990;2023-06-14T11:50:08;3.77;;;2.10;;
12110;SDS011;6119;52.372;8.990;2023-06-14T11:52:56;2.57;;;1.87;;
12110;SDS011;6119;52.372;8.990;2023-06-14T11:55:51;3.63;;;2.40;;
12110;SDS011;6119;52.372;8.990;2023-06-14T11:58:38;2.67;;;2.23;;
12110;SDS011;6119;52.372;8.990;2023-06-14T12:01:25;2.80;;;2.20;;
12110;SDS011;6119;52.372;8.990;2023-06-14T12:04:13;2.20;;;2.00;;
12110;SDS011;6119;52.372;8.990;2023-06-14T12:07:08;3.07;;;1.80;;
12110;SDS011;6119;52.372;8.990;2023-06-14T12:10:06;2.70;;;2.33;;
12110;SDS011;6119;52.372;8.990;2023-06-14T12:12:56;2.43;;;2.10;;
12110;SDS011;6119;52.372;8.990;2023-06-14T12:15:44;4.63;;;2.10;;
12110;SDS011;6119;52.372;8.990;2023-06-14T12:18:34;4.07;;;2.30;;
12110;SDS011;6119;52.372;8.990;2023-06-14T12:21:23;2.60;;;2.40;;
12110;SDS011;6119;52.372;8.990;2023-06-14T12:24:11;2.77;;;2.10;;
12110;SDS011;6119;52.372;8.990;2023-06-14T12:26:59;4.33;;;2.40;;
12110;SDS011;6119;52.372;8.990;2023-06-14T12:29:47;2.37;;;2.13;;
12110;SDS011;6119;52.372;8.990;2023-06-14T12:32:45;2.07;;;1.90;;
12110;SDS011;6119;52.372;8.990;2023-06-14T12:35:32;4.73;;;2.10;;
12110;SDS011;6119;52.372;8.990;2023-06-14T12:38:19;3.33;;;2.53;;
12110;SDS011;6119;52.372;8.990;2023-06-14T12:41:06;2.80;;;2.30;;
12110;SDS011;6119;52.372;8.990;2023-06-14T12:43:53;3.27;;;2.27;;
12110;SDS011;6119;52.372;8.990;2023-06-14T12:46:42;3.80;;;2.40;;
12110;SDS011;6119;52.372;8.990;2023-06-14T12:49:29;2.53;;;2.13;;
12110;SDS011;6119;52.372;8.990;2023-06-14T12:52:16;7.37;;;2.27;;
12110;SDS011;6119;52.372;8.990;2023-06-14T12:55:05;4.13;;;2.47;;
12110;SDS011;6119;52.372;8.990;2023-06-14T12:57:52;3.53;;;2.40;;
12110;SDS011;6119;52.372;8.990;2023-06-14T13:00:38;4.80;;;2.50;;
12110;SDS011;6119;52.372;8.990;2023-06-14T13:03:25;2.20;;;2.10;;
12110;SDS011;6119;52.372;8.990;2023-06-14T13:06:12;4.53;;;2.50;;
12110;SDS011;6119;52.372;8.990;2023-06-14T13:08:59;2.77;;;2.23;;
12110;SDS011;6119;52.372;8.990;2023-06-14T13:11:48;3.47;;;2.57;;
12110;SDS011;6119;52.372;8.990;2023-06-14T13:14:34;5.57;;;2.83;;
12110;SDS011;6119;52.372;8.990;2023-06-14T13:17:21;3.85;;;2.35;;
12110;SDS011;6119;52.372;8.990;2023-06-14T13:20:08;4.40;;;2.83;;
12110;SDS011;6119;52.372;8.990;2023-06-14T13:22:55;4.00;;;2.60;;
12110;SDS011;6119;52.372;8.990;2023-06-14T13:25:42;4.70;;;2.45;;
12110;SDS011;6119;52.372;8.990;2023-06-14T13:28:31;2.70;;;2.50;;
12110;SDS011;6119;52.372;8.990;2023-06-14T13:31:20;2.47;;;2.28;;
12110;SDS011;6119;52.372;8.990;2023-06-14T13:34:06;6.53;;;2.42;;
12110;SDS011;6119;52.372;8.990;2023-06-14T13:36:53;3.70;;;2.60;;
12110;SDS011;6119;52.372;8.990;2023-06-14T13:39:40;3.90;;;2.55;;
12110;SDS011;6119;52.372;8.990;2023-06-14T13:42:27;3.55;;;2.42;;
12110;SDS011;6119;52.372;8.990;2023-06-14T13:45:17;3.70;;;2.78;;
12110;SDS011;6119;52.372;8.990;2023-06-14T13:48:04;4.30;;;2.88;;
12110;SDS011;6119;52.372;8.990;2023-06-14T13:50:51;2.70;;;2.50;;
12110;SDS011;6119;52.372;8.990;2023-06-14T13:53:38;3.15;;;2.85;;
12110;SDS011;6119;52.372;8.990;2023-06-14T13:56:25;4.78;;;2.70;;
12110;SDS011;6119;52.372;8.990;2023-06-14T13:59:11;3.08;;;2.78;;
12110;SDS011;6119;52.372;8.990;2023-06-14T14:01:59;10.45;;;2.70;;
12110;SDS011;6119;52.372;8.990;2023-06-14T14:04:46;5.00;;;3.10;;
12110;SDS011;6119;52.372;8.990;2023-06-14T14:07:37;3.95;;;2.80;;
12110;SDS011;6119;52.372;8.990;2023-06-14T14:10:24;3.08;;;2.60;;
12110;SDS011;6119;52.372;8.990;2023-06-14T14:13:11;4.70;;;2.80;;
12110;SDS011;6119;52.372;8.990;2023-06-14T14:15:58;4.00;;;2.90;;
12110;SDS011;6119;52.372;8.990;2023-06-14T14:18:46;6.25;;;2.85;;
12110;SDS011;6119;52.372;8.990;2023-06-14T14:21:33;4.10;;;2.63;;
12110;SDS011;6119;52.372;8.990;2023-06-14T14:24:20;5.40;;;2.80;;
12110;SDS011;6119;52.372;8.990;2023-06-14T14:27:07;5.00;;;2.92;;
12110;SDS011;6119;52.372;8.990;2023-06-14T14:29:53;6.88;;;3.20;;
12110;SDS011;6119;52.372;8.990;2023-06-14T14:32:40;5.32;;;2.83;;
12110;SDS011;6119;52.372;8.990;2023-06-14T14:35:29;3.53;;;3.22;;
12110;SDS011;6119;52.372;8.990;2023-06-14T14:38:16;4.68;;;3.20;;
12110;SDS011;6119;52.372;8.990;2023-06-14T14:41:03;5.37;;;3.23;;
12110;SDS011;6119;52.372;8.990;2023-06-14T14:43:50;5.22;;;3.20;;
12110;SDS011;6119;52.372;8.990;2023-06-14T14:46:36;4.35;;;3.20;;
12110;SDS011;6119;52.372;8.990;2023-06-14T14:49:24;4.47;;;2.90;;
12110;SDS011;6119;52.372;8.990;2023-06-14T14:52:11;3.00;;;2.72;;
12110;SDS011;6119;52.372;8.990;2023-06-14T14:55:08;4.22;;;2.92;;
12110;SDS011;6119;52.372;8.990;2023-06-14T14:57:55;3.30;;;3.00;;
12110;SDS011;6119;52.372;8.990;2023-06-14T15:00:41;4.15;;;3.00;;
12110;SDS011;6119;52.372;8.990;2023-06-14T15:03:28;4.25;;;3.40;;
12110;SDS011;6119;52.372;8.990;2023-06-14T15:06:26;4.00;;;3.40;;
12110;SDS011;6119;52.372;8.990;2023-06-14T15:09:14;6.45;;;3.00;;
12110;SDS011;6119;52.372;8.990;2023-06-14T15:12:01;4.47;;;2.90;;
12110;SDS011;6119;52.372;8.990;2023-06-14T15:14:49;5.30;;;3.25;;
12110;SDS011;6119;52.372;8.990;2023-06-14T15:17:36;4.57;;;3.10;;
12110;SDS011;6119;52.372;8.990;2023-06-14T15:20:23;7.10;;;3.80;;
12110;SDS011;6119;52.372;8.990;2023-06-14T15:23:09;7.85;;;3.40;;
12110;SDS011;6119;52.372;8.990;2023-06-14T15:25:58;4.23;;;3.23;;
12110;SDS011;6119;52.372;8.990;2023-06-14T15:28:44;3.70;;;3.28;;
12110;SDS011;6119;52.372;8.990;2023-06-14T15:31:31;6.78;;;3.58;;
12110;SDS011;6119;52.372;8.990;2023-06-14T15:34:17;6.70;;;3.20;;
12110;SDS011;6119;52.372;8.990;2023-06-14T15:37:04;3.70;;;3.10;;
12110;SDS011;6119;52.372;8.990;2023-06-14T15:39:51;5.32;;;3.20;;
12110;SDS011;6119;52.372;8.990;2023-06-14T15:42:39;3.42;;;2.92;;
12110;SDS011;6119;52.372;8.990;2023-06-14T15:45:26;5.80;;;3.08;;
12110;SDS011;6119;52.372;8.990;2023-06-14T15:48:12;6.68;;;3.08;;
12110;SDS011;6119;52.372;8.990;2023-06-14T15:50:59;5.80;;;3.15;;
12110;SDS011;6119;52.372;8.990;2023-06-14T15:53:46;5.93;;;3.47;;
12110;SDS011;6119;52.372;8.990;2023-06-14T15:56:32;3.22;;;2.92;;
12110;SDS011;6119;52.372;8.990;2023-06-14T15:59:21;3.83;;;3.40;;
12110;SDS011;6119;52.372;8.990;2023-06-14T16:02:07;3.55;;;3.22;;
12110;SDS011;6119;52.372;8.990;2023-06-14T16:04:54;5.97;;;3.42;;
12110;SDS011;6119;52.372;8.990;2023-06-14T16:07:40;8.02;;;3.67;;
12110;SDS011;6119;52.372;8.990;2023-06-14T16:10:27;6.18;;;3.13;;
12110;SDS011;6119;52.372;8.990;2023-06-14T16:13:15;3.58;;;3.28;;
12110;SDS011;6119;52.372;8.990;2023-06-14T16:16:03;5.07;;;3.17;;
12110;SDS011;6119;52.372;8.990;2023-06-14T16:18:50;4.57;;;3.10;;
12110;SDS011;6119;52.372;8.990;2023-06-14T16:21:36;5.80;;;2.80;;
12110;SDS011;6119;52.372;8.990;2023-06-14T16:24:23;6.10;;;3.65;;
12110;SDS011;6119;52.372;8.990;2023-06-14T16:27:09;5.40;;;3.10;;
12110;SDS011;6119;52.372;8.990;2023-06-14T16:29:58;11.13;;;3.20;;
12110;SDS011;6119;52.372;8.990;2023-06-14T16:32:47;6.75;;;3.53;;
12110;SDS011;6119;52.372;8.990;2023-06-14T16:35:36;7.70;;;3.30;;
12110;SDS011;6119;52.372;8.990;2023-06-14T16:38:23;3.38;;;2.97;;
12110;SDS011;6119;52.372;8.990;2023-06-14T16:41:10;3.42;;;3.13;;
12110;SDS011;6119;52.372;8.990;2023-06-14T16:43:58;4.88;;;3.25;;
12110;SDS011;6119;52.372;8.990;2023-06-14T16:46:48;8.30;;;4.28;;
12110;SDS011;6119;52.372;8.990;2023-06-14T16:49:35;4.00;;;3.03;;
12110;SDS011;6119;52.372;8.990;2023-06-14T16:52:22;3.83;;;3.33;;
12110;SDS011;6119;52.372;8.990;2023-06-14T16:55:08;4.80;;;3.33;;
12110;SDS011;6119;52.372;8.990;2023-06-14T16:57:55;5.95;;;3.55;;
12110;SDS011;6119;52.372;8.990;2023-06-14T17:00:41;3.47;;;3.17;;
12110;SDS011;6119;52.372;8.990;2023-06-14T17:03:28;3.58;;;3.28;;
12110;SDS011;6119;52.372;8.990;2023-06-14T17:06:18;6.38;;;3.80;;
12110;SDS011;6119;52.372;8.990;2023-06-14T17:09:06;3.88;;;3.03;;